KMKJ

Details ICAO KMKJ
Name MOUNTAIN EMPIRE
Region United States
Timezone America/New_York (UTC-5.0)
Plans Departing 5
Arriving 6
Stats Elevation 2,558 ft / 780 m (AMSL)
Location 36.894849° -81.349946°
Runways 1
Magnetic Variation 7.705° W
Sunrise 2017-12-13 12:31:20 UTC / 2017-12-13 07:31:20 Local
Sunset 2017-12-13 22:10:55 UTC / 2017-12-13 17:10:55 Local
Advertisement - Login to hide

Runways

ID Width Length Bearing (true) Bearing (mag) Surface Threshold Offset Overrun Length
08 75 ft / 23 m 5,242 ft / 1,598 m 73.15° 80.86° Asphalt 0 ft / 0 m 0 ft / 0 m
26 75 ft / 23 m 5,242 ft / 1,598 m 253.16° 260.87° Asphalt 0 ft / 0 m 0 ft / 0 m

Approach Navaids

Runway Type Ident Frequency Range Bearing (true) Bearing (mag) Slope Elevation
26 Localiser IMKJ 110.50 MHz 18 nm / 33 km 253.14° 260.84° - 2,558 ft / 780 m (AMSL)

Map

Weather


0- 5 10 15 20 25 30 35+ Temperature / ° C

Clouds and Precipitation
Forecast for 2017-12-13 12:00 UTC. Updated 2 hours ago

Ground ~20,000 ft ~40,000 ft Winds

METAR

KMKJ 131235Z AUTO 28017G25KT 10SM CLR M08/M19 A2987 RMK AO2 T10781186

TAF

Not found

Frequencies

Recorded 123.87 MHz AWOS 3
Unicom 122.70 MHz CTAF/UNICOM
Warning: Do not use this data for real-world aviation or navigation. No guarantee of current accuracy is given.